createdAt,value
2023-04-29T00:01:05.986Z,3.42
2023-04-29T00:03:33.100Z,2.80
2023-04-29T00:06:01.107Z,3.10
2023-04-29T00:08:28.111Z,2.50
2023-04-29T00:10:54.733Z,3.17
2023-04-29T00:13:21.519Z,3.33
2023-04-29T00:15:48.276Z,2.58
2023-04-29T00:18:14.927Z,2.97
2023-04-29T00:20:42.295Z,3.10
2023-04-29T00:23:09.234Z,3.25
2023-04-29T00:25:36.132Z,3.20
2023-04-29T00:28:03.442Z,3.20
2023-04-29T00:30:30.360Z,3.20
2023-04-29T00:32:57.154Z,3.00
2023-04-29T00:35:23.843Z,2.70
2023-04-29T00:37:50.566Z,4.05
2023-04-29T00:40:17.587Z,3.03
2023-04-29T00:42:44.316Z,3.15
2023-04-29T00:45:11.710Z,3.10
2023-04-29T00:47:39.052Z,3.50
2023-04-29T00:50:07.907Z,3.17
2023-04-29T00:52:35.260Z,3.13
2023-04-29T00:55:02.832Z,3.63
2023-04-29T00:57:30.250Z,3.20
2023-04-29T01:00:00.572Z,3.40
2023-04-29T01:02:28.509Z,3.40
2023-04-29T01:04:55.817Z,2.90
2023-04-29T01:07:42.487Z,3.10
2023-04-29T01:10:29.784Z,3.35
2023-04-29T01:13:07.335Z,3.35
2023-04-29T01:15:48.430Z,3.00
2023-04-29T01:18:26.985Z,3.60
2023-04-29T01:20:53.883Z,3.38
2023-04-29T01:23:20.688Z,4.05
2023-04-29T01:25:49.018Z,3.03
2023-04-29T01:28:50.303Z,3.28
2023-04-29T01:31:25.903Z,3.05
2023-04-29T01:33:58.619Z,2.92
2023-04-29T01:36:45.390Z,3.63
2023-04-29T01:39:33.737Z,3.08
2023-04-29T01:42:03.780Z,3.20
2023-04-29T01:44:31.948Z,3.35
2023-04-29T01:46:59.293Z,3.85
2023-04-29T01:49:29.388Z,3.72
2023-04-29T01:51:56.167Z,3.30
2023-04-29T01:54:23.010Z,3.17
2023-04-29T01:56:49.776Z,3.53
2023-04-29T01:59:16.561Z,2.88
2023-04-29T02:01:43.212Z,2.95
2023-04-29T02:04:10.007Z,3.20
2023-04-29T02:06:36.696Z,3.80
2023-04-29T02:09:03.521Z,2.72
2023-04-29T02:11:30.229Z,3.17
2023-04-29T02:13:56.969Z,3.03
2023-04-29T02:16:23.660Z,3.15
2023-04-29T02:18:50.797Z,3.38
2023-04-29T02:21:17.432Z,3.15
2023-04-29T02:23:44.085Z,3.38
2023-04-29T02:26:10.885Z,4.28
2023-04-29T02:28:37.758Z,12.15
2023-04-29T02:31:04.513Z,3.60
2023-04-29T02:33:31.572Z,3.78
2023-04-29T02:35:59.900Z,3.30
2023-04-29T02:38:26.749Z,4.35
2023-04-29T02:40:53.446Z,3.53
2023-04-29T02:43:20.062Z,3.30
2023-04-29T02:45:46.754Z,3.70
2023-04-29T02:48:13.525Z,3.55
2023-04-29T02:50:40.222Z,3.30
2023-04-29T02:53:06.902Z,3.03
2023-04-29T02:55:34.271Z,3.65
2023-04-29T02:58:00.982Z,3.35
2023-04-29T03:00:27.649Z,3.65
2023-04-29T03:02:54.493Z,3.58
2023-04-29T03:05:21.268Z,4.78
2023-04-29T03:07:47.937Z,4.40
2023-04-29T03:10:14.847Z,3.80
2023-04-29T03:12:41.555Z,5.07
2023-04-29T03:15:08.535Z,3.55
2023-04-29T03:17:35.408Z,3.35
2023-04-29T03:20:02.482Z,3.17
2023-04-29T03:22:29.165Z,3.92
2023-04-29T03:24:55.862Z,3.30
2023-04-29T03:27:22.554Z,3.58
2023-04-29T03:29:49.472Z,3.45
2023-04-29T03:32:16.307Z,3.33
2023-04-29T03:34:42.959Z,4.03
2023-04-29T03:37:09.688Z,3.45
2023-04-29T03:39:36.319Z,3.17
2023-04-29T03:42:03.168Z,4.05
2023-04-29T03:44:29.939Z,3.83
2023-04-29T03:46:56.607Z,3.58
2023-04-29T03:49:23.956Z,3.30
2023-04-29T03:51:50.770Z,3.60
2023-04-29T03:54:17.745Z,3.95
2023-04-29T03:56:44.500Z,3.63
2023-04-29T03:59:11.198Z,3.72
2023-04-29T04:01:37.914Z,3.50
2023-04-29T04:04:04.878Z,3.58
2023-04-29T04:06:32.101Z,3.35
2023-04-29T04:08:58.807Z,3.92
2023-04-29T04:11:25.563Z,3.38
2023-04-29T04:13:52.211Z,3.38
2023-04-29T04:16:18.994Z,3.22
2023-04-29T04:18:45.856Z,3.55
2023-04-29T04:21:13.310Z,3.45
2023-04-29T04:23:41.231Z,3.80
2023-04-29T04:26:08.688Z,4.18
2023-04-29T04:28:35.438Z,4.10
2023-04-29T04:31:02.504Z,3.75
2023-04-29T04:33:29.347Z,3.97
2023-04-29T04:35:56.332Z,5.35
2023-04-29T04:38:25.459Z,3.83
2023-04-29T04:43:19.026Z,4.50
2023-04-29T04:45:45.844Z,4.03
2023-04-29T04:48:12.626Z,3.90
2023-04-29T04:50:39.269Z,4.38
2023-04-29T04:53:05.998Z,4.22
2023-04-29T04:55:33.632Z,5.50
2023-04-29T04:58:00.375Z,3.90
2023-04-29T05:00:27.145Z,4.38
2023-04-29T05:02:53.960Z,3.55
2023-04-29T05:05:21.602Z,3.88
2023-04-29T05:07:48.228Z,3.53
2023-04-29T05:10:14.911Z,4.03
2023-04-29T05:12:41.703Z,3.53
2023-04-29T05:15:08.751Z,3.53
2023-04-29T05:17:36.639Z,3.72
2023-04-29T05:20:03.769Z,4.03
2023-04-29T05:22:30.647Z,3.42
2023-04-29T05:25:02.901Z,3.50
2023-04-29T05:27:29.994Z,3.38
2023-04-29T05:29:57.128Z,4.60
2023-04-29T05:32:23.954Z,3.40
2023-04-29T05:34:51.325Z,3.47
2023-04-29T05:37:18.040Z,3.25
2023-04-29T05:39:44.762Z,3.10
2023-04-29T05:42:11.425Z,3.40
2023-04-29T05:44:38.090Z,3.45
2023-04-29T05:47:04.776Z,3.45
2023-04-29T05:49:31.454Z,3.20
2023-04-29T05:51:58.106Z,3.08
2023-04-29T05:54:24.795Z,3.92
2023-04-29T05:56:51.461Z,3.20
2023-04-29T05:59:18.109Z,3.33
2023-04-29T06:01:44.836Z,3.45
2023-04-29T06:04:11.863Z,3.33
2023-04-29T06:06:38.735Z,3.33
2023-04-29T06:09:13.457Z,14.90
2023-04-29T06:11:47.575Z,3.10
2023-04-29T06:14:14.545Z,3.72
2023-04-29T06:16:41.332Z,3.30
2023-04-29T06:19:08.125Z,3.47
2023-04-29T06:21:34.794Z,3.05
2023-04-29T06:24:01.414Z,3.03
2023-04-29T06:26:28.184Z,4.10
2023-04-29T06:28:54.996Z,4.00
2023-04-29T06:31:23.165Z,3.00
2023-04-29T06:33:50.204Z,3.85
2023-04-29T06:36:16.923Z,2.90
2023-04-29T06:38:43.685Z,3.58
2023-04-29T06:41:10.512Z,3.08
2023-04-29T06:43:37.207Z,3.83
2023-04-29T06:46:04.258Z,3.53
2023-04-29T06:48:31.079Z,3.13
2023-04-29T06:50:58.425Z,3.53
2023-04-29T06:53:25.139Z,3.42
2023-04-29T06:55:51.951Z,3.33
2023-04-29T06:58:19.610Z,3.17
2023-04-29T07:00:48.426Z,3.45
2023-04-29T07:03:15.647Z,3.25
2023-04-29T07:05:45.420Z,4.10
2023-04-29T07:08:13.419Z,3.05
2023-04-29T07:10:41.637Z,3.10
2023-04-29T07:13:08.453Z,2.50
2023-04-29T07:15:36.421Z,2.83
2023-04-29T07:18:06.267Z,2.72
2023-04-29T07:20:33.071Z,2.85
2023-04-29T07:22:59.724Z,4.03
2023-04-29T07:25:27.893Z,2.40
2023-04-29T07:27:54.765Z,2.55
2023-04-29T07:30:21.541Z,4.00
2023-04-29T07:32:48.358Z,3.35
2023-04-29T07:35:15.095Z,3.05
2023-04-29T07:37:44.119Z,2.90
2023-04-29T07:40:11.426Z,2.80
2023-04-29T07:42:38.086Z,2.40
2023-04-29T07:45:05.710Z,2.60
2023-04-29T07:47:32.468Z,3.00
2023-04-29T07:49:59.223Z,2.63
2023-04-29T07:52:26.026Z,3.00
2023-04-29T07:54:53.484Z,3.42
2023-04-29T07:57:20.351Z,3.47
2023-04-29T07:59:47.065Z,3.42
2023-04-29T08:02:14.247Z,2.75
2023-04-29T08:04:42.622Z,4.75
2023-04-29T08:07:09.622Z,4.10
2023-04-29T08:09:36.371Z,2.83
2023-04-29T08:12:02.986Z,3.40
2023-04-29T08:14:29.697Z,3.58
2023-04-29T08:16:56.477Z,2.72
2023-04-29T08:19:23.171Z,3.50
2023-04-29T08:21:49.900Z,2.55
2023-04-29T08:24:16.570Z,3.00
2023-04-29T08:26:43.177Z,3.38
2023-04-29T08:29:10.027Z,2.78
2023-04-29T08:31:36.795Z,3.05
2023-04-29T08:34:03.718Z,4.22
2023-04-29T08:36:30.368Z,2.97
2023-04-29T08:38:57.170Z,2.47
2023-04-29T08:41:24.797Z,3.88
2023-04-29T08:43:51.515Z,3.38
2023-04-29T08:46:18.834Z,2.92
2023-04-29T08:48:46.043Z,3.40
2023-04-29T08:51:14.019Z,3.05
2023-04-29T08:53:40.733Z,3.13
2023-04-29T08:56:14.503Z,3.13
2023-04-29T08:58:41.638Z,2.47
2023-04-29T09:01:11.443Z,3.83
2023-04-29T09:03:48.214Z,3.38
2023-04-29T09:06:15.604Z,2.70
2023-04-29T09:08:42.324Z,3.17
2023-04-29T09:11:11.820Z,2.40
2023-04-29T09:13:38.825Z,3.28
2023-04-29T09:16:10.475Z,3.17
2023-04-29T09:18:47.556Z,3.45
2023-04-29T09:21:25.464Z,2.88
2023-04-29T09:23:54.165Z,2.92
2023-04-29T09:26:21.196Z,3.33
2023-04-29T09:28:49.809Z,6.70
2023-04-29T09:31:27.614Z,3.28
2023-04-29T09:33:55.950Z,14.35
2023-04-29T09:36:46.400Z,4.72
2023-04-29T09:39:17.781Z,5.22
2023-04-29T09:41:50.708Z,5.03
2023-04-29T09:44:17.346Z,2.80
2023-04-29T09:46:44.131Z,2.80
2023-04-29T09:49:38.856Z,3.40
2023-04-29T09:52:07.398Z,2.65
2023-04-29T09:54:36.329Z,3.30
2023-04-29T09:57:06.473Z,2.83
2023-04-29T09:59:37.513Z,3.08
2023-04-29T10:02:15.472Z,3.35
2023-04-29T10:04:43.010Z,2.83
2023-04-29T10:07:09.837Z,2.53
2023-04-29T10:09:38.188Z,2.83
2023-04-29T10:12:05.539Z,2.83
2023-04-29T10:14:39.463Z,2.28
2023-04-29T10:17:16.917Z,2.83
2023-04-29T10:20:10.088Z,2.67
2023-04-29T10:22:46.915Z,2.50
2023-04-29T10:25:16.137Z,3.03
2023-04-29T10:27:44.504Z,2.00
2023-04-29T10:30:15.326Z,3.60
2023-04-29T10:32:50.928Z,2.47
2023-04-29T10:35:20.630Z,3.15
2023-04-29T10:37:48.970Z,2.30
2023-04-29T10:40:28.076Z,2.33
2023-04-29T10:42:55.210Z,2.50
2023-04-29T10:45:32.867Z,3.45
2023-04-29T10:48:02.933Z,4.63
2023-04-29T10:50:30.375Z,3.78
2023-04-29T10:52:58.025Z,15.15
2023-04-29T10:55:25.727Z,3.10
2023-04-29T10:57:57.138Z,2.75
2023-04-29T11:00:28.370Z,2.83
2023-04-29T11:02:55.820Z,2.28
2023-04-29T11:05:33.323Z,4.32
2023-04-29T11:08:24.401Z,2.60
2023-04-29T11:10:54.697Z,3.28
2023-04-29T11:13:31.816Z,3.13
2023-04-29T11:16:09.338Z,2.97
2023-04-29T11:19:05.861Z,3.50
2023-04-29T11:21:37.035Z,2.60
2023-04-29T11:24:06.451Z,2.45
2023-04-29T11:26:36.712Z,2.80
2023-04-29T11:29:05.513Z,2.58
2023-04-29T11:34:00.413Z,3.05
2023-04-29T11:36:29.792Z,2.55
2023-04-29T11:38:56.428Z,2.50
2023-04-29T11:41:23.425Z,2.88
2023-04-29T11:43:57.744Z,4.32
2023-04-29T11:46:24.471Z,2.15
2023-04-29T11:48:51.235Z,2.70
2023-04-29T11:51:22.658Z,3.00
2023-04-29T11:53:49.466Z,2.55
2023-04-29T11:56:16.159Z,2.30
2023-04-29T11:58:44.744Z,2.72
2023-04-29T12:01:11.479Z,2.38
2023-04-29T12:03:38.498Z,2.42
2023-04-29T12:06:06.630Z,2.63
2023-04-29T12:08:35.146Z,2.72
2023-04-29T12:11:01.946Z,2.35
2023-04-29T12:13:30.598Z,3.17
2023-04-29T12:15:58.670Z,2.88
2023-04-29T12:18:27.590Z,2.42
2023-04-29T12:20:57.147Z,2.83
2023-04-29T12:23:24.884Z,2.60
2023-04-29T12:25:53.565Z,3.22
2023-04-29T12:28:21.017Z,2.65
2023-04-29T12:30:48.834Z,2.45
2023-04-29T12:33:22.727Z,2.45
2023-04-29T12:35:51.391Z,2.33
2023-04-29T12:38:22.123Z,3.15
2023-04-29T12:40:49.370Z,2.80
2023-04-29T12:43:16.283Z,3.03
2023-04-29T12:45:43.236Z,2.22
2023-04-29T12:48:22.246Z,2.30
2023-04-29T12:50:53.336Z,3.22
2023-04-29T12:53:20.000Z,2.95
2023-04-29T12:55:46.765Z,2.47
2023-04-29T12:58:13.567Z,2.85
2023-04-29T13:00:41.149Z,5.47
2023-04-29T13:03:08.709Z,2.50
2023-04-29T13:05:35.948Z,2.13
2023-04-29T13:08:02.904Z,2.20
2023-04-29T13:10:29.614Z,2.42
2023-04-29T13:12:56.906Z,2.40
2023-04-29T13:15:23.582Z,2.97
2023-04-29T13:17:50.248Z,2.63
2023-04-29T13:20:17.871Z,3.50
2023-04-29T13:22:44.645Z,2.65
2023-04-29T13:25:16.488Z,2.35
2023-04-29T13:27:45.172Z,2.55
2023-04-29T13:30:12.153Z,2.22
2023-04-29T13:32:45.014Z,1.90
2023-04-29T13:35:18.385Z,1.90
2023-04-29T13:37:45.022Z,1.77
2023-04-29T13:40:19.984Z,1.90
2023-04-29T13:42:50.545Z,2.08
2023-04-29T13:45:19.996Z,2.72
2023-04-29T13:48:05.757Z,2.25
2023-04-29T13:53:35.521Z,2.50
2023-04-29T13:56:47.607Z,2.28
2023-04-29T14:01:26.060Z,2.50
2023-04-29T14:04:11.156Z,2.45
2023-04-29T14:06:38.036Z,2.45
2023-04-29T14:09:04.775Z,1.92
2023-04-29T14:11:31.879Z,1.80
2023-04-29T14:13:58.522Z,2.05
2023-04-29T14:16:25.417Z,2.00
2023-04-29T14:18:52.144Z,2.17
2023-04-29T14:21:18.870Z,2.08
2023-04-29T14:23:45.484Z,2.17
2023-04-29T14:26:27.287Z,2.17
2023-04-29T14:28:59.892Z,2.38
2023-04-29T14:31:31.229Z,1.88
2023-04-29T14:33:58.702Z,2.05
2023-04-29T14:36:26.642Z,2.00
2023-04-29T14:38:53.343Z,2.47
2023-04-29T14:41:21.713Z,2.78
2023-04-29T14:43:49.639Z,1.75
2023-04-29T14:46:16.850Z,1.95
2023-04-29T14:48:43.876Z,2.13
2023-04-29T14:51:10.795Z,2.08
2023-04-29T14:53:37.558Z,1.92
2023-04-29T14:56:04.279Z,1.67
2023-04-29T14:58:30.941Z,1.90
2023-04-29T15:00:57.627Z,2.10
2023-04-29T15:03:24.472Z,2.13
2023-04-29T15:05:51.692Z,3.70
2023-04-29T15:08:19.169Z,3.03
2023-04-29T15:10:47.853Z,1.95
2023-04-29T15:13:14.725Z,6.15
2023-04-29T15:15:41.494Z,2.70
2023-04-29T15:18:08.961Z,2.72
2023-04-29T15:20:37.011Z,2.97
2023-04-29T15:23:04.730Z,7.07
2023-04-29T15:25:33.615Z,2.72
2023-04-29T15:28:01.506Z,2.00
2023-04-29T15:30:28.338Z,2.97
2023-04-29T15:32:55.487Z,2.53
2023-04-29T15:35:22.508Z,2.45
2023-04-29T15:37:49.554Z,6.28
2023-04-29T15:40:17.511Z,3.35
2023-04-29T15:42:44.339Z,2.30
2023-04-29T15:45:11.646Z,2.88
2023-04-29T15:47:38.685Z,3.17
2023-04-29T15:50:06.092Z,3.05
2023-04-29T15:52:32.779Z,1.67
2023-04-29T15:54:59.602Z,1.92
2023-04-29T15:57:26.350Z,2.28
2023-04-29T15:59:53.387Z,2.67
2023-04-29T16:02:21.201Z,2.13
2023-04-29T16:04:48.216Z,2.58
2023-04-29T16:07:14.936Z,4.07
2023-04-29T16:09:41.741Z,6.65
2023-04-29T16:12:08.762Z,3.03
2023-04-29T16:14:35.444Z,2.88
2023-04-29T16:17:02.518Z,3.17
2023-04-29T16:19:29.365Z,2.47
2023-04-29T16:21:56.039Z,2.20
2023-04-29T16:24:22.886Z,2.80
2023-04-29T16:26:50.777Z,2.65
2023-04-29T16:29:18.387Z,3.25
2023-04-29T16:31:45.424Z,2.53
2023-04-29T16:34:12.491Z,4.75
2023-04-29T16:36:39.454Z,3.10
2023-04-29T16:39:06.303Z,3.13
2023-04-29T16:41:33.421Z,4.22
2023-04-29T16:44:00.205Z,2.50
2023-04-29T16:46:27.972Z,2.63
2023-04-29T16:48:56.885Z,3.00
2023-04-29T16:51:26.665Z,2.83
2023-04-29T16:53:53.594Z,2.83
2023-04-29T16:56:21.667Z,3.08
2023-04-29T16:58:48.928Z,5.90
2023-04-29T17:01:15.998Z,2.45
2023-04-29T17:03:42.792Z,3.03
2023-04-29T17:06:09.572Z,3.28
2023-04-29T17:08:36.338Z,3.35
2023-04-29T17:11:04.953Z,4.65
2023-04-29T17:13:31.673Z,6.00
2023-04-29T17:15:58.435Z,3.28
2023-04-29T17:18:25.118Z,4.70
2023-04-29T17:20:51.849Z,3.72
2023-04-29T17:23:18.455Z,3.85
2023-04-29T17:25:45.334Z,4.65
2023-04-29T17:28:12.021Z,4.20
2023-04-29T17:30:38.822Z,4.57
2023-04-29T17:33:06.092Z,3.15
2023-04-29T17:35:33.741Z,3.45
2023-04-29T17:38:00.673Z,4.05
2023-04-29T17:40:27.557Z,3.33
2023-04-29T17:42:54.394Z,2.78
2023-04-29T17:45:21.250Z,3.15
2023-04-29T17:47:48.523Z,3.03
2023-04-29T17:50:15.430Z,3.72
2023-04-29T17:52:42.665Z,3.60
2023-04-29T17:55:10.134Z,4.38
2023-04-29T17:57:38.236Z,3.50
2023-04-29T18:00:07.499Z,7.25
2023-04-29T18:05:03.404Z,10.10
2023-04-29T18:07:30.159Z,8.23
2023-04-29T18:09:57.592Z,6.40
2023-04-29T18:12:25.147Z,7.07
2023-04-29T18:14:52.114Z,7.68
2023-04-29T18:17:19.375Z,8.13
2023-04-29T18:19:52.455Z,7.82
2023-04-29T18:22:19.442Z,6.45
2023-04-29T18:24:48.370Z,6.85
2023-04-29T18:27:15.138Z,7.30
2023-04-29T18:29:41.823Z,7.25
2023-04-29T18:32:08.610Z,5.57
2023-04-29T18:34:35.812Z,5.43
2023-04-29T18:37:02.496Z,5.88
2023-04-29T18:39:29.130Z,6.10
2023-04-29T18:41:56.190Z,8.10
2023-04-29T18:44:22.991Z,8.15
2023-04-29T18:46:49.763Z,7.35
2023-04-29T18:49:17.932Z,9.57
2023-04-29T18:51:48.181Z,5.47
2023-04-29T18:54:16.992Z,6.07
2023-04-29T18:56:48.144Z,7.00
2023-04-29T18:59:20.882Z,6.50
2023-04-29T19:01:48.350Z,6.93
2023-04-29T19:04:15.596Z,5.65
2023-04-29T19:06:42.863Z,5.65
2023-04-29T19:09:10.635Z,7.50
2023-04-29T19:11:37.437Z,7.80
2023-04-29T19:14:04.342Z,6.68
2023-04-29T19:16:49.539Z,6.22
2023-04-29T19:19:16.245Z,7.10
2023-04-29T19:21:44.085Z,18.90
2023-04-29T19:24:11.035Z,10.13
2023-04-29T19:26:40.011Z,11.07
2023-04-29T19:29:07.416Z,7.25
2023-04-29T19:31:34.065Z,8.45
2023-04-29T19:34:00.755Z,9.45
2023-04-29T19:36:27.562Z,8.65
2023-04-29T19:38:54.503Z,8.90
2023-04-29T19:41:21.510Z,8.25
2023-04-29T19:43:48.128Z,8.63
2023-04-29T19:46:15.150Z,14.70
2023-04-29T19:48:42.439Z,10.35
2023-04-29T19:51:09.426Z,11.38
2023-04-29T19:53:36.831Z,9.10
2023-04-29T19:56:03.530Z,7.97
2023-04-29T19:58:30.200Z,8.65
2023-04-29T20:00:57.017Z,11.05
2023-04-29T20:03:24.058Z,13.00
2023-04-29T20:05:51.077Z,16.50
2023-04-29T20:08:17.928Z,17.08
2023-04-29T20:10:45.997Z,17.13
2023-04-29T20:13:12.682Z,11.60
2023-04-29T20:15:39.319Z,10.50
2023-04-29T20:18:06.108Z,8.82
2023-04-29T20:20:32.721Z,6.70
2023-04-29T20:23:00.444Z,6.68
2023-04-29T20:25:28.568Z,8.32
2023-04-29T20:27:55.258Z,10.07
2023-04-29T20:30:21.966Z,10.15
2023-04-29T20:32:48.690Z,11.30
2023-04-29T20:35:15.840Z,10.93
2023-04-29T20:37:42.514Z,11.32
2023-04-29T20:40:09.892Z,11.75
2023-04-29T20:42:36.615Z,11.95
2023-04-29T20:45:03.667Z,11.88
2023-04-29T20:47:30.668Z,11.88
2023-04-29T20:49:57.385Z,10.93
2023-04-29T20:52:24.338Z,10.30
2023-04-29T20:54:52.638Z,10.43
2023-04-29T20:57:19.346Z,10.23
2023-04-29T20:59:46.302Z,10.43
2023-04-29T21:02:13.363Z,9.70
2023-04-29T21:04:40.452Z,11.07
2023-04-29T21:07:07.738Z,10.18
2023-04-29T21:09:35.852Z,11.35
2023-04-29T21:12:06.200Z,11.32
2023-04-29T21:14:33.478Z,13.13
2023-04-29T21:17:00.155Z,12.10
2023-04-29T21:19:26.950Z,11.32
2023-04-29T21:21:53.566Z,13.73
2023-04-29T21:24:20.199Z,12.63
2023-04-29T21:26:47.582Z,13.50
2023-04-29T21:29:14.266Z,16.13
2023-04-29T21:31:41.118Z,13.63
2023-04-29T21:34:07.925Z,13.93
2023-04-29T21:36:34.635Z,13.23
2023-04-29T21:39:01.346Z,12.43
2023-04-29T21:41:29.642Z,11.75
2023-04-29T21:43:58.130Z,11.40
2023-04-29T21:46:27.486Z,10.45
2023-04-29T21:51:22.801Z,9.98
2023-04-29T21:53:50.476Z,10.60
2023-04-29T21:59:01.572Z,9.77
2023-04-29T22:01:48.756Z,11.77
2023-04-29T22:04:19.089Z,10.00
2023-04-29T22:06:46.140Z,10.40
2023-04-29T22:09:12.947Z,10.95
2023-04-29T22:11:39.649Z,10.95
2023-04-29T22:14:06.340Z,10.55
2023-04-29T22:16:35.295Z,11.25
2023-04-29T22:19:02.139Z,10.93
2023-04-29T22:21:29.049Z,11.07
2023-04-29T22:23:55.963Z,11.00
2023-04-29T22:26:25.543Z,10.73
2023-04-29T22:28:52.700Z,10.98
2023-04-29T22:31:19.378Z,10.40
2023-04-29T22:33:46.119Z,10.48
2023-04-29T22:36:13.041Z,14.50
2023-04-29T22:38:39.716Z,15.88
2023-04-29T22:41:07.354Z,15.70
2023-04-29T22:43:34.025Z,14.32
2023-04-29T22:46:01.161Z,15.70
2023-04-29T22:48:28.707Z,14.80
2023-04-29T22:51:02.814Z,13.68
2023-04-29T22:53:29.582Z,16.00
2023-04-29T22:55:57.514Z,15.88
2023-04-29T22:58:25.530Z,15.63
2023-04-29T23:00:54.271Z,16.17
2023-04-29T23:03:21.052Z,16.27
2023-04-29T23:05:47.823Z,15.93
2023-04-29T23:08:14.637Z,16.50
2023-04-29T23:10:41.267Z,15.70
2023-04-29T23:13:08.007Z,17.00
2023-04-29T23:15:34.766Z,16.05
2023-04-29T23:18:01.540Z,17.08
2023-04-29T23:20:28.261Z,15.77
2023-04-29T23:22:54.962Z,16.73
2023-04-29T23:25:21.635Z,15.85
2023-04-29T23:27:48.300Z,16.27
2023-04-29T23:30:15.007Z,16.75
2023-04-29T23:32:41.920Z,15.65
2023-04-29T23:35:11.334Z,16.40
2023-04-29T23:40:07.005Z,16.27
2023-04-29T23:42:34.005Z,16.52
2023-04-29T23:45:01.059Z,16.48
2023-04-29T23:47:27.758Z,16.52
2023-04-29T23:49:54.797Z,16.48
2023-04-29T23:52:22.224Z,16.23
2023-04-29T23:54:48.981Z,16.20
2023-04-29T23:57:15.632Z,15.75
2023-04-29T23:59:42.605Z,13.98
